Jamestown, NM (87347)

2:54 AM MDT on August 27, 2014 (GMT -0600)
Gallup Municipal | Change Station
CLOSE
Current Station
Airport
Location: Gallup,
Elevation: 6470 ft
Nearby Weather Stations
Active Advisory: Flash Flood Watch Active Notice: Public Information Statement

Elev 6470 ft 35.51 °N, 108.79 °W | Updated 1 hour ago

Clear
Clear
52 °F
Feels Like 52 °F
N
0
Wind Variable Wind from North

Today
High -- | Low -- °F
--% Chance of Precip.
Yesterday
High -- | Low -- °F
Precip. -- in
6:43 AM 7:48 PM
Waxing Crescent, 3% visible
Pressure 29.94 in
Visibility 10.0 miles
Clouds Clear
Dew Point 50 °F
Humidity 93%
Rainfall 0.00 in
Snow Depth Not available.
UV 0 out of 12
Pollen 6.40 out of 12
Air Quality Not available.
Flu Activity Not available.
METAR KGUP 270753Z AUTO 00000KT 10SM CLR 11/10 A3033 RMK AO2 SLP138 T01110100

More Conditions Fewer Conditions

Pressure 29.94 in
Visibility 10.0 miles
Clouds Clear
Dew Point 50 °F
Humidity 93%
Rainfall 0.00 in
Snow Depth Not available.
UV 0 out of 12
Pollen 6.40 out of 12
Air Quality Not available.
Flu Activity Not available.
METAR KGUP 270753Z AUTO 00000KT 10SM CLR 11/10 A3033 RMK AO2 SLP138 T01110100

More Conditions Fewer Conditions

10-Day Weather Forecast

Almanac

Astronomy

Aug. 27, 2014 Rise Set
Actual Time 6:43 AM MDT 7:48 PM MDT
Civil Twilight 6:17 AM MDT 8:14 PM MDT
Nautical Twilight 5:46 AM MDT 8:45 PM MDT
Astronomical Twilight 5:13 AM MDT 9:18 PM MDT
Moon 8:36 AM MDT 8:49 PM MDT
Length of Visible Light 13h 57m
Length of Day
13h 05m
Tomorrow will be 2m 6s shorter.
Waxing Crescent, 3% of the Moon is Illuminated
Today
Waxing Crescent
Sep 2
First Quarter
Sep 8
Full
Sep 15
Last Quarter
Sep 24
New

Today's Extremes

State Highs State Lows

Community

WunderPhotos

Upload Photos

1,747,657 photos uploaded!

Nearby

Snow Depth

Station Depth Elevation
Rice Park 0 in 8460 ft
Senorita Divide #2 0 in 8600 ft
Frisco Divide 0 in 8000 ft
Quemazon 1 in 9500 ft
Silver Creek Divide 1 in 9000 ft

Earthquake Activity

City Distance Mag. Time & Date
No recent earthquake activity has been reported nearby.
Minimum magnitude displayed is 2.5.

Coastal Water Temperatures

Place Temperature
No Stations Reporting

Nearby Weather Stations